Time;durP1;ratioP1;P1;durP2;ratioP2;P2;SDS_P1;SDS_P2;PMS_P1;PMS_P2;Temp;Humidity;BMP_temperature;BMP_pressure;BME280_temperature;BME280_humidity;BME280_pressure;Samples;Min_cycle;Max_cycle;Signal;HPM_P1;HPM_P2
2023/04/16 00:01:24;;;;;;;29.70;14.95;;;8.60;99.90;;;;;;4990657;28;20096;-63
2023/04/16 00:03:50;;;;;;;43.90;17.10;;;8.80;99.90;;;;;;5005807;28;20047;-64
2023/04/16 00:06:16;;;;;;;44.63;16.17;;;8.70;99.90;;;;;;4990453;28;20086;-65
2023/04/16 00:08:42;;;;;;;42.28;17.65;;;8.80;99.90;;;;;;4989200;28;20635;-64
2023/04/16 00:11:09;;;;;;;38.95;16.00;;;8.80;99.90;;;;;;4980933;28;20458;-63
2023/04/16 00:13:36;;;;;;;37.85;16.42;;;8.60;99.90;;;;;;4972906;28;20046;-63
2023/04/16 00:16:03;;;;;;;35.45;15.90;;;8.80;99.90;;;;;;5002321;28;20056;-64
2023/04/16 00:18:30;;;;;;;37.72;15.40;;;8.80;99.90;;;;;;4998240;28;20118;-64
2023/04/16 00:20:58;;;;;;;40.33;16.65;;;8.60;99.90;;;;;;4990287;28;20078;-65
2023/04/16 00:23:24;;;;;;;35.90;17.63;;;8.70;99.90;;;;;;4990436;28;20362;-64
2023/04/16 00:25:52;;;;;;;38.17;15.65;;;8.70;99.90;;;;;;4990231;28;20430;-64
2023/04/16 00:28:18;;;;;;;41.50;16.30;;;8.80;99.90;;;;;;4982030;28;20359;-64
2023/04/16 00:30:45;;;;;;;31.13;16.23;;;8.80;99.90;;;;;;5009970;28;20133;-64
2023/04/16 00:33:11;;;;;;;42.15;17.55;;;8.80;99.90;;;;;;5009915;28;20049;-64
2023/04/16 00:35:37;;;;;;;45.90;17.10;;;8.80;99.90;;;;;;5009702;28;20359;-64
2023/04/16 00:38:04;;;;;;;41.85;16.60;;;8.80;99.90;;;;;;4984010;28;20054;-64
2023/04/16 00:40:30;;;;;;;44.70;17.50;;;8.80;99.90;;;;;;4990356;28;20141;-64
2023/04/16 00:42:57;;;;;;;48.30;18.73;;;8.80;99.90;;;;;;4993848;28;20128;-64
2023/04/16 00:45:23;;;;;;;44.08;17.63;;;8.80;99.90;;;;;;4994028;28;20058;-65
2023/04/16 00:47:49;;;;;;;49.53;20.00;;;8.60;99.90;;;;;;4998636;28;20121;-63
2023/04/16 00:50:18;;;;;;;45.38;19.38;;;8.70;99.90;;;;;;5013001;28;20148;-63
2023/04/16 00:52:47;;;;;;;44.72;17.77;;;8.70;99.90;;;;;;5012886;28;20402;-64
2023/04/16 00:55:14;;;;;;;44.83;17.63;;;8.80;99.90;;;;;;5013287;28;20469;-64
2023/04/16 00:57:40;;;;;;;46.30;18.58;;;8.80;99.90;;;;;;5007984;28;20074;-63
2023/04/16 01:00:07;;;;;;;57.17;20.73;;;8.80;99.90;;;;;;4993595;28;20323;-64
2023/04/16 01:02:33;;;;;;;46.08;19.67;;;8.60;99.90;;;;;;4976212;28;20105;-65
2023/04/16 01:05:01;;;;;;;49.08;19.00;;;8.80;99.90;;;;;;4993350;28;20077;-65
2023/04/16 01:07:27;;;;;;;48.55;18.10;;;8.70;99.90;;;;;;4995296;28;20085;-65
2023/04/16 01:09:53;;;;;;;50.60;21.42;;;8.60;99.90;;;;;;5013196;28;20073;-63
2023/04/16 01:12:19;;;;;;;52.45;21.25;;;8.70;99.90;;;;;;5012824;28;20049;-65
2023/04/16 01:14:46;;;;;;;47.05;18.27;;;8.70;99.90;;;;;;5012621;28;20339;-64
2023/04/16 01:17:12;;;;;;;50.42;18.45;;;8.60;99.90;;;;;;5011810;28;20112;-64
2023/04/16 01:19:38;;;;;;;46.45;17.80;;;8.60;99.90;;;;;;4973153;28;20462;-65
2023/04/16 01:22:08;;;;;;;51.67;18.35;;;8.60;99.90;;;;;;4973314;28;20089;-64
2023/04/16 01:24:35;;;;;;;58.60;20.05;;;8.70;99.90;;;;;;4973590;28;20153;-63
2023/04/16 01:27:01;;;;;;;47.00;19.88;;;8.60;99.90;;;;;;4955729;28;20346;-64
2023/04/16 01:29:27;;;;;;;47.92;20.52;;;8.60;99.90;;;;;;4993079;28;20430;-65
2023/04/16 01:31:54;;;;;;;50.45;19.17;;;8.70;99.90;;;;;;4992712;28;20047;-63
2023/04/16 01:34:20;;;;;;;52.55;19.63;;;8.60;99.90;;;;;;4992602;28;20046;-64
2023/04/16 01:36:46;;;;;;;50.13;20.45;;;8.70;99.90;;;;;;4992578;28;20473;-65
2023/04/16 01:39:15;;;;;;;50.17;21.25;;;8.60;99.90;;;;;;5008641;28;20058;-64
2023/04/16 01:41:42;;;;;;;50.00;19.42;;;8.70;99.90;;;;;;5012207;28;20172;-64
2023/04/16 01:44:10;;;;;;;44.22;18.70;;;8.70;99.90;;;;;;5012155;28;20046;-65
2023/04/16 01:46:36;;;;;;;46.28;19.70;;;8.60;99.90;;;;;;5012072;28;20093;-64
2023/04/16 01:49:04;;;;;;;46.75;20.42;;;8.70;99.90;;;;;;4996243;28;20438;-67
2023/04/16 01:51:31;;;;;;;51.30;20.42;;;8.60;99.90;;;;;;4992409;28;20061;-65
2023/04/16 01:53:57;;;;;;;43.88;19.15;;;8.60;99.90;;;;;;4992422;28;20093;-66
2023/04/16 01:56:24;;;;;;;48.53;20.40;;;8.60;99.90;;;;;;4992560;28;20095;-66
2023/04/16 01:58:51;;;;;;;52.60;21.05;;;8.80;99.90;;;;;;5004962;28;20052;-65
2023/04/16 02:01:24;;;;;;;48.78;19.42;;;8.80;99.90;;;;;;5011546;28;20448;-64
2023/04/16 02:03:51;;;;;;;43.60;19.73;;;8.70;99.90;;;;;;5011938;28;20151;-64
2023/04/16 02:06:18;;;;;;;44.97;20.58;;;8.80;99.90;;;;;;5011710;28;20064;-64
2023/04/16 02:08:44;;;;;;;48.13;18.42;;;8.60;99.90;;;;;;4998824;28;20125;-64
2023/04/16 02:11:10;;;;;;;49.38;18.63;;;8.80;99.90;;;;;;4974621;28;20053;-64
2023/04/16 02:13:36;;;;;;;47.33;18.67;;;8.80;99.90;;;;;;4992509;28;20046;-64
2023/04/16 02:16:03;;;;;;;48.78;19.83;;;8.80;99.90;;;;;;4991924;28;20074;-64
2023/04/16 02:18:29;;;;;;;48.63;18.92;;;8.60;99.90;;;;;;4970526;28;20382;-64
2023/04/16 02:20:59;;;;;;;49.72;19.73;;;8.60;99.90;;;;;;4972745;28;20051;-63
2023/04/16 02:23:25;;;;;;;46.97;20.98;;;8.80;99.90;;;;;;4972424;28;20435;-64
2023/04/16 02:25:51;;;;;;;52.30;20.42;;;8.60;99.90;;;;;;4972450;28;20356;-64
2023/04/16 02:28:18;;;;;;;48.20;20.38;;;8.70;99.90;;;;;;4980021;28;20073;-64
2023/04/16 02:30:44;;;;;;;48.42;19.75;;;8.80;99.90;;;;;;4992020;28;20082;-64
2023/04/16 02:33:11;;;;;;;43.88;21.13;;;8.70;99.90;;;;;;4991656;28;20458;-64
2023/04/16 02:35:39;;;;;;;43.47;20.60;;;8.80;99.90;;;;;;4991553;28;20057;-63
2023/04/16 02:38:06;;;;;;;44.45;19.55;;;8.70;99.90;;;;;;4984329;28;20082;-64
2023/04/16 02:40:32;;;;;;;46.20;19.98;;;8.80;99.90;;;;;;4972135;28;20142;-63
2023/04/16 02:42:59;;;;;;;42.58;18.95;;;8.80;99.90;;;;;;4971097;28;20081;-65
2023/04/16 02:45:25;;;;;;;46.17;18.80;;;8.80;99.90;;;;;;4971197;28;20146;-65
2023/04/16 02:47:51;;;;;;;42.92;18.80;;;8.80;99.90;;;;;;4973386;28;20082;-64
2023/04/16 02:50:18;;;;;;;37.25;16.80;;;8.80;99.90;;;;;;4991272;28;20090;-64
2023/04/16 02:52:44;;;;;;;40.58;21.55;;;8.70;99.90;;;;;;4991376;28;20089;-64
2023/04/16 02:55:11;;;;;;;43.03;18.15;;;8.80;99.90;;;;;;4991334;28;20434;-64
2023/04/16 02:57:37;;;;;;;40.50;17.52;;;8.80;99.90;;;;;;4987928;28;20434;-64
2023/04/16 03:00:04;;;;;;;39.75;18.48;;;8.90;99.90;;;;;;4971582;28;20474;-64
2023/04/16 03:02:30;;;;;;;39.92;19.38;;;8.90;99.90;;;;;;4971869;28;20071;-64
2023/04/16 03:04:56;;;;;;;35.55;17.75;;;8.70;99.90;;;;;;4970064;28;20074;-65
2023/04/16 03:07:23;;;;;;;43.13;20.05;;;8.90;99.90;;;;;;4972159;28;20047;-65
2023/04/16 03:09:50;;;;;;;43.65;19.77;;;8.80;99.90;;;;;;4991210;28;20054;-65
2023/04/16 03:12:16;;;;;;;42.15;20.75;;;8.80;99.90;;;;;;4990994;28;20085;-64
2023/04/16 03:14:43;;;;;;;41.00;18.33;;;8.80;99.90;;;;;;4990874;28;20212;-64
2023/04/16 03:17:09;;;;;;;32.97;16.75;;;8.60;99.90;;;;;;4990723;28;20042;-65
2023/04/16 03:19:35;;;;;;;41.50;18.80;;;8.80;99.90;;;;;;4972037;28;20457;-65
2023/04/16 03:22:02;;;;;;;38.55;18.30;;;8.80;99.90;;;;;;4971414;28;20051;-64
2023/04/16 03:24:28;;;;;;;43.58;19.50;;;8.70;99.90;;;;;;4971625;28;20054;-65
2023/04/16 03:26:57;;;;;;;42.42;18.63;;;8.70;99.90;;;;;;4971326;28;20082;-64
2023/04/16 03:29:23;;;;;;;42.83;20.60;;;8.70;99.90;;;;;;4988215;28;20109;-64
2023/04/16 03:31:53;;;;;;;41.20;19.15;;;8.70;99.90;;;;;;4990509;28;20644;-65
2023/04/16 03:34:20;;;;;;;49.65;19.63;;;8.70;99.90;;;;;;4990623;28;20085;-65
2023/04/16 03:36:47;;;;;;;40.15;18.38;;;8.80;99.90;;;;;;4990322;28;20151;-65
2023/04/16 03:39:13;;;;;;;45.03;19.15;;;8.80;99.90;;;;;;4975171;28;20055;-64
2023/04/16 03:41:39;;;;;;;40.50;18.65;;;8.70;99.90;;;;;;4970918;28;20428;-64
2023/04/16 03:44:07;;;;;;;43.67;17.58;;;8.80;99.90;;;;;;4971345;28;20145;-64
2023/04/16 03:46:34;;;;;;;35.80;17.40;;;8.60;99.90;;;;;;4969526;28;20051;-64
2023/04/16 03:49:01;;;;;;;38.97;18.15;;;8.70;99.90;;;;;;4984332;28;20423;-66
2023/04/16 03:51:27;;;;;;;41.42;18.50;;;8.80;99.90;;;;;;4990190;28;20501;-65
2023/04/16 03:53:53;;;;;;;38.42;18.55;;;8.70;99.90;;;;;;4973451;28;20155;-65
2023/04/16 03:56:19;;;;;;;36.42;17.55;;;8.70;99.90;;;;;;4990814;28;20077;-64
2023/04/16 03:58:46;;;;;;;35.55;17.52;;;8.60;99.90;;;;;;4978409;28;20078;-63
2023/04/16 04:01:12;;;;;;;34.90;17.95;;;8.70;99.90;;;;;;4971292;28;20062;-64
2023/04/16 04:03:38;;;;;;;34.45;17.83;;;8.70;99.90;;;;;;4971165;28;20059;-65
2023/04/16 04:06:08;;;;;;;40.40;18.33;;;8.60;99.90;;;;;;4971012;28;20051;-64
2023/04/16 04:08:34;;;;;;;39.67;17.50;;;8.80;99.90;;;;;;4980391;28;20104;-66
2023/04/16 04:11:00;;;;;;;40.90;18.10;;;8.70;99.90;;;;;;4990554;28;20073;-64
2023/04/16 04:13:27;;;;;;;43.88;19.85;;;8.80;99.90;;;;;;4990490;28;20078;-65
2023/04/16 04:15:53;;;;;;;41.22;18.73;;;8.80;99.90;;;;;;4992244;28;20686;-64
2023/04/16 04:18:19;;;;;;;37.25;19.25;;;8.80;99.90;;;;;;4972832;28;20051;-65
2023/04/16 04:20:47;;;;;;;37.42;20.23;;;8.80;99.90;;;;;;4974693;28;20055;-64
2023/04/16 04:23:13;;;;;;;38.47;18.48;;;8.80;99.90;;;;;;4973340;28;20063;-65
2023/04/16 04:25:39;;;;;;;39.75;18.48;;;8.70;99.90;;;;;;4974349;28;20364;-64
2023/04/16 04:28:06;;;;;;;42.97;18.30;;;8.60;99.90;;;;;;4979961;28;20086;-63
2023/04/16 04:30:34;;;;;;;37.30;19.90;;;8.70;99.90;;;;;;4993684;28;20074;-66
2023/04/16 04:33:00;;;;;;;41.10;18.95;;;8.80;99.90;;;;;;4993694;28;20074;-65
2023/04/16 04:35:27;;;;;;;39.28;19.67;;;8.60;99.90;;;;;;4993919;28;20083;-65
2023/04/16 04:37:53;;;;;;;36.65;18.42;;;8.80;99.90;;;;;;4989173;28;20089;-65
2023/04/16 04:40:19;;;;;;;36.88;18.92;;;8.80;99.90;;;;;;4974492;28;20043;-66
2023/04/16 04:42:46;;;;;;;38.08;19.15;;;8.80;99.90;;;;;;4974313;28;20066;-64
2023/04/16 04:45:12;;;;;;;37.72;19.58;;;8.80;99.90;;;;;;4974662;28;20090;-63
2023/04/16 04:47:39;;;;;;;42.13;19.40;;;8.80;99.90;;;;;;4975518;28;21066;-64
2023/04/16 04:50:05;;;;;;;35.53;18.95;;;8.60;99.90;;;;;;4976363;28;20103;-64
2023/04/16 04:52:32;;;;;;;44.22;21.13;;;8.70;99.90;;;;;;4993433;28;20053;-64
2023/04/16 04:54:58;;;;;;;38.03;18.80;;;8.70;99.90;;;;;;4993722;28;20105;-63
2023/04/16 04:57:24;;;;;;;37.13;18.90;;;8.80;99.90;;;;;;4992809;28;20474;-64
2023/04/16 04:59:51;;;;;;;39.20;18.33;;;8.80;99.90;;;;;;4954498;29;20103;-64
2023/04/16 05:02:24;;;;;;;34.25;18.02;;;8.70;99.90;;;;;;4954865;29;20086;-63
2023/04/16 05:04:52;;;;;;;42.42;19.23;;;8.90;99.90;;;;;;4954638;29;20138;-64
2023/04/16 05:07:18;;;;;;;36.92;18.77;;;8.70;99.90;;;;;;4954301;29;20378;-64
2023/04/16 05:09:45;;;;;;;45.33;23.27;;;8.80;99.90;;;;;;4992524;28;20114;-65
2023/04/16 05:12:11;;;;;;;47.33;18.98;;;8.80;99.90;;;;;;4993197;28;20062;-65
2023/04/16 05:14:37;;;;;;;37.05;19.05;;;8.80;99.90;;;;;;4993015;28;20410;-64
2023/04/16 05:17:03;;;;;;;44.50;18.92;;;8.70;99.90;;;;;;4992885;28;20164;-65
2023/04/16 05:19:30;;;;;;;37.92;19.70;;;8.70;99.90;;;;;;4975956;28;20051;-64
2023/04/16 05:21:56;;;;;;;38.90;19.67;;;8.80;99.90;;;;;;4973927;28;20051;-65
2023/04/16 05:24:22;;;;;;;40.63;20.48;;;8.70;99.90;;;;;;4973895;28;20074;-66
2023/04/16 05:26:49;;;;;;;40.33;19.33;;;8.70;99.90;;;;;;4972903;28;20050;-65
2023/04/16 05:29:15;;;;;;;44.92;22.00;;;8.90;99.90;;;;;;4975352;28;20043;-65
2023/04/16 05:31:45;;;;;;;43.05;20.58;;;8.70;99.90;;;;;;4992873;28;20050;-64
2023/04/16 05:34:11;;;;;;;44.45;22.63;;;8.80;99.90;;;;;;4992747;28;20085;-64
2023/04/16 05:36:37;;;;;;;48.55;22.30;;;8.80;99.90;;;;;;4992133;28;20130;-63
2023/04/16 05:39:03;;;;;;;43.78;21.02;;;8.90;99.90;;;;;;4979360;28;20047;-63
2023/04/16 05:41:30;;;;;;;50.90;22.13;;;8.70;99.90;;;;;;4973377;28;20061;-63
2023/04/16 05:43:56;;;;;;;41.25;20.98;;;8.70;99.90;;;;;;4972212;28;20086;-64
2023/04/16 05:46:22;;;;;;;40.85;21.33;;;8.80;99.90;;;;;;4971606;28;20051;-64
2023/04/16 05:48:48;;;;;;;44.55;22.17;;;8.90;99.90;;;;;;4983985;28;20499;-63
2023/04/16 05:51:26;;;;;;;41.55;22.02;;;9.00;99.90;;;;;;4974846;28;20164;-63
2023/04/16 05:53:52;;;;;;;39.40;21.17;;;9.00;99.90;;;;;;4992380;28;20052;-64
2023/04/16 05:56:19;;;;;;;44.20;21.58;;;9.00;99.90;;;;;;4991969;28;20050;-64
2023/04/16 05:58:45;;;;;;;42.33;21.85;;;8.90;99.90;;;;;;4981273;28;20093;-63
2023/04/16 06:01:12;;;;;;;42.45;21.00;;;9.00;99.90;;;;;;4972942;28;20082;-63
2023/04/16 06:03:38;;;;;;;43.15;21.13;;;9.00;99.90;;;;;;4972454;28;20366;-65
2023/04/16 06:06:07;;;;;;;44.88;22.02;;;9.00;99.90;;;;;;4972576;28;20061;-65
2023/04/16 06:08:34;;;;;;;41.65;20.27;;;9.00;99.90;;;;;;4980673;28;20335;-64
2023/04/16 06:11:00;;;;;;;43.13;20.98;;;9.10;99.90;;;;;;4992115;28;20151;-64
2023/04/16 06:13:26;;;;;;;45.90;23.10;;;9.10;99.90;;;;;;4992221;28;20131;-64
2023/04/16 06:15:53;;;;;;;42.03;21.90;;;9.10;99.90;;;;;;4991602;28;20097;-63
2023/04/16 06:18:19;;;;;;;42.03;21.88;;;8.90;99.90;;;;;;4970824;28;20157;-64
2023/04/16 06:20:46;;;;;;;34.00;18.30;;;9.00;99.90;;;;;;4972624;28;20061;-65
2023/04/16 06:23:14;;;;;;;37.90;19.88;;;9.00;99.90;;;;;;4972318;28;20109;-64
2023/04/16 06:25:40;;;;;;;35.25;20.42;;;9.10;99.90;;;;;;4972150;28;20458;-63
2023/04/16 06:28:07;;;;;;;34.97;18.75;;;9.20;99.90;;;;;;4976943;28;20058;-64
2023/04/16 06:30:33;;;;;;;39.53;19.30;;;9.20;99.90;;;;;;4991751;28;20064;-65
2023/04/16 06:32:59;;;;;;;37.95;19.58;;;9.20;99.90;;;;;;4991481;28;20081;-65
2023/04/16 06:35:26;;;;;;;37.25;19.83;;;9.20;99.90;;;;;;4992115;28;20050;-65
2023/04/16 06:37:52;;;;;;;38.33;21.65;;;9.20;99.90;;;;;;4988043;28;20055;-64
2023/04/16 06:40:18;;;;;;;35.58;18.63;;;9.30;99.90;;;;;;4971673;28;20053;-65
2023/04/16 06:42:45;;;;;;;36.47;19.85;;;9.40;99.90;;;;;;4971147;28;20058;-64
2023/04/16 06:45:12;;;;;;;38.50;18.88;;;9.40;99.90;;;;;;4980555;28;20086;-65
2023/04/16 06:47:39;;;;;;;41.25;20.88;;;9.40;99.90;;;;;;4989433;28;20359;-65
2023/04/16 06:50:06;;;;;;;33.45;18.95;;;9.40;99.90;;;;;;4972179;28;20430;-65
2023/04/16 06:52:32;;;;;;;37.53;19.20;;;9.50;99.90;;;;;;4971743;28;20078;-64
2023/04/16 06:54:58;;;;;;;34.10;17.58;;;9.60;99.90;;;;;;4971918;28;20444;-66
2023/04/16 06:57:24;;;;;;;32.67;18.48;;;9.60;99.90;;;;;;4971711;28;20328;-64
2023/04/16 06:59:51;;;;;;;36.10;18.85;;;9.60;99.90;;;;;;4990257;28;20419;-64
2023/04/16 07:02:17;;;;;;;36.75;18.08;;;9.50;99.90;;;;;;4991234;28;20069;-64
2023/04/16 07:04:43;;;;;;;33.85;18.63;;;9.60;99.90;;;;;;4991420;28;20046;-64
2023/04/16 07:07:10;;;;;;;37.05;19.02;;;9.60;99.90;;;;;;4990855;28;20046;-65
2023/04/16 07:09:36;;;;;;;35.70;17.75;;;9.60;99.90;;;;;;4974108;28;20082;-64
2023/04/16 07:12:02;;;;;;;29.15;16.98;;;9.70;99.90;;;;;;4971434;28;20455;-64
2023/04/16 07:14:29;;;;;;;39.47;17.48;;;9.60;99.90;;;;;;4970374;28;20050;-63
2023/04/16 07:16:55;;;;;;;32.53;16.60;;;9.70;99.90;;;;;;5009072;28;20071;-63
2023/04/16 07:19:21;;;;;;;34.33;17.40;;;9.70;99.90;;;;;;4978114;28;20081;-64
2023/04/16 07:21:48;;;;;;;32.40;17.92;;;9.80;99.90;;;;;;4991052;28;20077;-65
2023/04/16 07:24:14;;;;;;;38.40;19.25;;;9.80;99.90;;;;;;4990945;28;20065;-65
2023/04/16 07:26:40;;;;;;;36.92;19.65;;;9.80;99.90;;;;;;4990443;28;20355;-64
2023/04/16 07:29:07;;;;;;;38.60;19.48;;;9.80;99.90;;;;;;5003406;28;20054;-63
2023/04/16 07:31:33;;;;;;;32.00;17.65;;;9.70;99.90;;;;;;5010130;28;20065;-64
2023/04/16 07:33:59;;;;;;;39.15;18.08;;;9.80;99.90;;;;;;5010381;28;20081;-63
2023/04/16 07:36:27;;;;;;;38.40;19.65;;;9.80;99.90;;;;;;5010049;28;20068;-65
2023/04/16 07:38:53;;;;;;;37.25;17.88;;;9.90;99.90;;;;;;4999611;28;20097;-64
2023/04/16 07:41:19;;;;;;;34.83;16.98;;;10.00;99.90;;;;;;4990880;28;20112;-63
2023/04/16 07:43:46;;;;;;;33.85;17.92;;;10.20;99.90;;;;;;4973582;28;20062;-63
2023/04/16 07:46:12;;;;;;;36.70;16.55;;;10.40;99.90;;;;;;4989783;28;20092;-63
2023/04/16 07:48:38;;;;;;;34.35;18.98;;;10.30;99.90;;;;;;4990961;28;20122;-64
2023/04/16 07:51:04;;;;;;;27.35;16.05;;;10.40;99.90;;;;;;4992583;28;20054;-63
2023/04/16 07:53:31;;;;;;;34.97;18.30;;;10.60;99.90;;;;;;4994096;28;20050;-63
2023/04/16 07:55:57;;;;;;;32.72;16.75;;;10.70;99.90;;;;;;4991724;28;20458;-64
2023/04/16 07:58:23;;;;;;;32.33;16.65;;;10.70;99.90;;;;;;4994594;28;20042;-63
2023/04/16 08:00:50;;;;;;;30.20;17.40;;;10.80;99.90;;;;;;4994031;28;20097;-62
2023/04/16 08:03:17;;;;;;;34.38;16.67;;;10.80;99.90;;;;;;4994065;28;20058;-64
2023/04/16 08:05:43;;;;;;;34.50;19.15;;;10.90;99.90;;;;;;4990536;28;20069;-63
2023/04/16 08:08:09;;;;;;;31.77;17.35;;;11.10;99.90;;;;;;4996003;28;20046;-64
2023/04/16 08:10:35;;;;;;;28.10;16.23;;;11.20;99.90;;;;;;4993663;28;20408;-63
2023/04/16 08:13:02;;;;;;;29.70;15.85;;;11.30;99.90;;;;;;4993626;28;20137;-65
2023/04/16 08:15:28;;;;;;;31.83;17.80;;;11.40;99.90;;;;;;4975713;28;20126;-64
2023/04/16 08:17:54;;;;;;;32.78;17.50;;;11.50;99.90;;;;;;4992941;28;20435;-64
2023/04/16 08:20:21;;;;;;;30.55;16.05;;;11.60;99.90;;;;;;4975187;28;20070;-64
2023/04/16 08:22:48;;;;;;;30.58;16.38;;;11.70;99.90;;;;;;4993975;28;20086;-63
2023/04/16 08:25:15;;;;;;;27.75;15.38;;;11.80;99.90;;;;;;4992183;28;20508;-64
2023/04/16 08:27:42;;;;;;;35.55;16.50;;;11.70;99.90;;;;;;4973125;28;20062;-64
2023/04/16 08:30:09;;;;;;;30.20;15.98;;;11.90;99.90;;;;;;4993657;28;20046;-66
2023/04/16 08:32:35;;;;;;;30.33;15.48;;;12.00;99.90;;;;;;4992722;28;20132;-64
2023/04/16 08:35:02;;;;;;;27.25;15.88;;;12.20;99.90;;;;;;4976114;28;20092;-64
2023/04/16 08:37:28;;;;;;;28.05;15.68;;;12.30;99.90;;;;;;4992227;28;20069;-65
2023/04/16 08:39:54;;;;;;;23.95;15.07;;;12.40;99.90;;;;;;4992791;28;20065;-64
2023/04/16 08:42:30;;;;;;;28.83;16.05;;;12.50;99.90;;;;;;4993098;28;20104;-63
2023/04/16 08:45:07;;;;;;;28.92;16.55;;;12.60;99.90;;;;;;4993534;28;20082;-64
2023/04/16 08:47:35;;;;;;;;;;;12.80;99.90;;;;;;4993359;28;20042;-64
2023/04/16 08:50:03;;;;;;;29.83;15.35;;;13.00;99.90;;;;;;4992619;28;19932;-64
2023/04/16 08:52:31;;;;;;;30.67;16.42;;;13.10;99.90;;;;;;4993271;28;20054;-63
2023/04/16 08:55:13;;;;;;;29.65;15.77;;;12.90;99.90;;;;;;4992912;28;20121;-64
2023/04/16 08:57:57;;;;;;;30.60;15.40;;;13.00;99.90;;;;;;4992772;28;20081;-66
2023/04/16 09:00:24;;;;;;;31.45;17.50;;;13.10;99.90;;;;;;4993504;28;20319;-65
2023/04/16 09:02:51;;;;;;;26.17;15.82;;;13.20;99.90;;;;;;4992208;28;20417;-65
2023/04/16 09:05:19;;;;;;;30.10;16.05;;;13.40;99.90;;;;;;4993062;28;20378;-65
2023/04/16 09:07:47;;;;;;;30.13;16.55;;;13.10;99.90;;;;;;4992704;28;20145;-63
2023/04/16 09:10:14;;;;;;;27.80;15.70;;;13.20;99.90;;;;;;4993306;28;20093;-63
2023/04/16 09:12:42;;;;;;;26.00;15.93;;;13.20;99.90;;;;;;4998143;28;20042;-63
2023/04/16 09:15:12;;;;;;;33.78;17.00;;;13.20;99.90;;;;;;5012674;28;20089;-63
2023/04/16 09:17:39;;;;;;;30.90;15.95;;;13.40;99.90;;;;;;5011831;28;20072;-63
2023/04/16 09:20:07;;;;;;;26.20;15.18;;;13.50;99.90;;;;;;5012797;28;20088;-63
2023/04/16 09:22:35;;;;;;;27.75;15.55;;;13.60;99.90;;;;;;4998107;28;20066;-64
2023/04/16 09:25:01;;;;;;;26.92;15.55;;;13.70;99.90;;;;;;4991237;28;20054;-64
2023/04/16 09:27:28;;;;;;;24.55;16.30;;;13.80;99.90;;;;;;4992114;28;20106;-64
2023/04/16 09:29:55;;;;;;;27.42;15.45;;;14.00;99.90;;;;;;5011095;28;20125;-64
2023/04/16 09:32:26;;;;;;;26.90;15.18;;;14.10;99.90;;;;;;5012784;28;20049;-64
2023/04/16 09:35:00;;;;;;;29.77;16.20;;;14.30;99.90;;;;;;5012606;28;20092;-64
2023/04/16 09:37:28;;;;;;;30.75;16.33;;;14.10;99.90;;;;;;5012385;28;20105;-63
2023/04/16 09:40:00;;;;;;;29.88;15.73;;;14.40;99.90;;;;;;4993980;28;20078;-64
2023/04/16 09:42:32;;;;;;;26.17;15.88;;;14.40;99.90;;;;;;4991969;28;20385;-64
2023/04/16 09:45:00;;;;;;;30.25;15.73;;;14.30;99.90;;;;;;4974380;28;20046;-63
2023/04/16 09:47:42;;;;;;;28.95;17.73;;;14.30;99.90;;;;;;4991379;28;20469;-66
2023/04/16 09:50:12;;;;;;;26.42;14.80;;;14.50;99.90;;;;;;4991181;28;20113;-63
2023/04/16 09:52:47;;;;;;;27.70;15.80;;;14.60;99.90;;;;;;4975159;28;20078;-64
2023/04/16 09:55:14;;;;;;;23.55;15.20;;;14.60;99.90;;;;;;4972426;28;20189;-63
2023/04/16 09:57:40;;;;;;;28.58;15.85;;;14.80;99.90;;;;;;4991389;28;20050;-64
2023/04/16 10:00:09;;;;;;;25.75;14.82;;;14.80;99.90;;;;;;4991710;28;20507;-63
2023/04/16 10:02:39;;;;;;;30.63;16.90;;;15.00;99.90;;;;;;4991452;28;20046;-64
2023/04/16 10:05:06;;;;;;;28.45;17.08;;;14.90;99.90;;;;;;4988659;28;20088;-64
2023/04/16 10:07:34;;;;;;;26.52;16.35;;;14.50;99.90;;;;;;4990424;28;20508;-64
2023/04/16 10:10:02;;;;;;;29.85;16.48;;;14.50;99.90;;;;;;4972954;28;20459;-64
2023/04/16 10:12:31;;;;;;;22.15;14.15;;;14.60;99.90;;;;;;4991269;28;20163;-63
2023/04/16 10:14:58;;;;;;;27.48;14.07;;;14.80;99.90;;;;;;4973477;28;20134;-64
2023/04/16 10:17:28;;;;;;;27.92;17.70;;;15.00;99.90;;;;;;4990039;28;20329;-63
2023/04/16 10:19:56;;;;;;;24.45;14.93;;;14.90;99.90;;;;;;4991037;28;20148;-63
2023/04/16 10:22:22;;;;;;;26.25;15.57;;;14.90;99.90;;;;;;4991729;28;20653;-65
2023/04/16 10:24:50;;;;;;;30.15;15.68;;;15.00;99.90;;;;;;4990413;28;20510;-64
2023/04/16 10:27:17;;;;;;;25.42;15.80;;;14.90;99.90;;;;;;4972522;28;20502;-64
2023/04/16 10:29:43;;;;;;;24.42;13.75;;;14.70;99.90;;;;;;4959662;28;20061;-63
2023/04/16 10:32:10;;;;;;;27.25;15.68;;;14.70;99.90;;;;;;4991381;28;20050;-64
2023/04/16 10:34:37;;;;;;;22.90;14.35;;;14.50;99.90;;;;;;4973565;28;20098;-62
2023/04/16 10:37:04;;;;;;;20.88;14.75;;;14.60;99.90;;;;;;4990941;28;20055;-63
2023/04/16 10:39:36;;;;;;;28.92;14.52;;;14.80;99.90;;;;;;4992843;28;20121;-64
2023/04/16 10:42:10;;;;;;;26.17;14.05;;;14.90;99.90;;;;;;4988971;28;20051;-65
2023/04/16 10:44:39;;;;;;;25.52;15.35;;;15.00;99.90;;;;;;4990907;28;20050;-65
2023/04/16 10:47:13;;;;;;;30.40;15.88;;;14.80;99.90;;;;;;4990761;28;20096;-63
2023/04/16 10:49:40;;;;;;;30.33;14.82;;;14.70;99.90;;;;;;4992389;28;20050;-63
2023/04/16 10:52:19;;;;;;;27.75;15.80;;;15.20;99.90;;;;;;4974158;28;20145;-63
2023/04/16 10:54:47;;;;;;;28.42;15.15;;;14.90;99.90;;;;;;4974300;28;20169;-63
2023/04/16 10:57:18;;;;;;;27.23;14.45;;;15.00;99.90;;;;;;4990911;28;20130;-65
2023/04/16 10:59:45;;;;;;;30.00;17.30;;;15.10;99.90;;;;;;5007603;28;20328;-63
2023/04/16 11:02:16;;;;;;;28.00;15.43;;;15.00;99.90;;;;;;4998816;28;20050;-64
2023/04/16 11:04:47;;;;;;;30.23;15.50;;;15.10;99.90;;;;;;4991282;28;20086;-64
2023/04/16 11:07:18;;;;;;;26.98;15.13;;;15.00;99.90;;;;;;4990686;28;20385;-65
2023/04/16 11:10:01;;;;;;;31.20;15.25;;;15.10;99.90;;;;;;5006881;28;20145;-64
2023/04/16 11:12:36;;;;;;;24.50;15.18;;;15.30;99.90;;;;;;5010557;28;20590;-63
2023/04/16 11:15:11;;;;;;;27.17;14.85;;;15.20;99.90;;;;;;4992766;28;20104;-64
2023/04/16 11:17:43;;;;;;;25.35;13.77;;;15.20;99.90;;;;;;4993018;28;20046;-62
2023/04/16 11:20:15;;;;;;;30.52;17.52;;;15.20;99.90;;;;;;4992463;28;20370;-64
2023/04/16 11:22:44;;;;;;;25.80;16.70;;;15.10;99.90;;;;;;5010322;28;20330;-63
2023/04/16 11:25:11;;;;;;;22.42;14.45;;;15.10;99.90;;;;;;5010128;28;20139;-64
2023/04/16 11:27:37;;;;;;;26.23;14.68;;;15.20;99.90;;;;;;5010202;28;20145;-63
2023/04/16 11:30:08;;;;;;;29.65;15.13;;;15.30;99.90;;;;;;4991615;28;20058;-63
2023/04/16 11:32:36;;;;;;;27.73;15.63;;;15.40;99.90;;;;;;4991081;28;20050;-63
2023/04/16 11:35:11;;;;;;;23.13;14.48;;;15.60;99.90;;;;;;4990174;28;20427;-63
2023/04/16 11:37:38;;;;;;;26.73;16.38;;;15.60;99.90;;;;;;4969493;28;20419;-63
2023/04/16 11:40:05;;;;;;;24.05;14.13;;;15.40;99.90;;;;;;4991338;28;20104;-62
2023/04/16 11:42:35;;;;;;;24.52;14.13;;;15.40;99.90;;;;;;4989632;28;20354;-64
2023/04/16 11:45:03;;;;;;;28.38;14.70;;;15.50;99.90;;;;;;4990238;28;20165;-64
2023/04/16 11:47:30;;;;;;;23.33;13.63;;;15.50;99.90;;;;;;4989901;28;20119;-64
2023/04/16 11:49:57;;;;;;;24.05;14.20;;;15.50;99.90;;;;;;4993348;28;20082;-65
2023/04/16 11:52:29;;;;;;;22.73;14.50;;;15.40;99.90;;;;;;4990702;28;20118;-67
2023/04/16 11:54:56;;;;;;;30.55;14.95;;;15.30;99.90;;;;;;4987048;28;20042;-64
2023/04/16 11:57:28;;;;;;;31.00;16.80;;;15.30;99.90;;;;;;4990507;28;20085;-65
2023/04/16 11:59:56;;;;;;;25.98;14.90;;;15.20;99.90;;;;;;4991630;28;20058;-64
2023/04/16 12:02:48;;;;;;;25.40;15.57;;;15.30;99.90;;;;;;4990906;28;20053;-64
2023/04/16 12:05:34;;;;;;;24.02;15.85;;;15.20;99.90;;;;;;4990230;28;20060;-65
2023/04/16 12:08:09;;;;;;;29.75;15.38;;;15.50;99.90;;;;;;4974215;28;20395;-64
2023/04/16 12:10:53;;;;;;;25.50;17.65;;;15.30;99.90;;;;;;5005393;28;20061;-64
2023/04/16 12:13:20;;;;;;;31.00;17.05;;;15.10;99.90;;;;;;4990151;28;20521;-63
2023/04/16 12:15:55;;;;;;;27.83;17.10;;;14.90;99.90;;;;;;4984560;28;20185;-64
2023/04/16 12:18:25;;;;;;;25.67;16.58;;;15.10;99.90;;;;;;4940961;28;20057;-64
2023/04/16 12:20:52;;;;;;;25.55;15.73;;;15.00;99.90;;;;;;4961544;28;20047;-63
2023/04/16 12:23:27;;;;;;;23.92;15.80;;;15.10;99.90;;;;;;4968173;28;20050;-65
2023/04/16 12:25:54;;;;;;;23.92;14.32;;;15.00;99.90;;;;;;4970439;28;20110;-65
2023/04/16 12:28:37;;;;;;;28.48;15.35;;;15.10;99.90;;;;;;4970697;28;20058;-63
2023/04/16 12:31:03;;;;;;;26.58;14.63;;;15.00;99.90;;;;;;4970981;28;20221;-64
2023/04/16 12:33:30;;;;;;;24.27;13.35;;;15.00;99.90;;;;;;4970701;28;20466;-65
2023/04/16 12:35:57;;;;;;;27.63;13.93;;;15.20;99.90;;;;;;4970249;28;20146;-66